sensor_id;sensor_type;location;lat;lon;timestamp;P1;durP1;ratioP1;P2;durP2;ratioP2
31424;SDS011;18054;51.572;7.372;2023-04-06T00:01:48;31.85;;;15.18;;
31424;SDS011;18054;51.572;7.372;2023-04-06T00:04:16;31.60;;;16.10;;
31424;SDS011;18054;51.572;7.372;2023-04-06T00:06:43;33.42;;;15.05;;
31424;SDS011;18054;51.572;7.372;2023-04-06T00:09:11;30.75;;;15.80;;
31424;SDS011;18054;51.572;7.372;2023-04-06T00:11:38;23.27;;;11.50;;
31424;SDS011;18054;51.572;7.372;2023-04-06T00:14:06;27.33;;;13.88;;
31424;SDS011;18054;51.572;7.372;2023-04-06T00:16:35;25.35;;;13.18;;
31424;SDS011;18054;51.572;7.372;2023-04-06T00:19:02;30.02;;;15.73;;
31424;SDS011;18054;51.572;7.372;2023-04-06T00:21:30;27.50;;;13.90;;
31424;SDS011;18054;51.572;7.372;2023-04-06T00:23:58;33.53;;;14.05;;
31424;SDS011;18054;51.572;7.372;2023-04-06T00:26:25;28.20;;;12.27;;
31424;SDS011;18054;51.572;7.372;2023-04-06T00:28:54;23.95;;;12.55;;
31424;SDS011;18054;51.572;7.372;2023-04-06T00:31:21;26.23;;;11.88;;
31424;SDS011;18054;51.572;7.372;2023-04-06T00:33:51;28.35;;;15.00;;
31424;SDS011;18054;51.572;7.372;2023-04-06T00:36:18;39.22;;;14.00;;
31424;SDS011;18054;51.572;7.372;2023-04-06T00:38:46;28.92;;;13.50;;
31424;SDS011;18054;51.572;7.372;2023-04-06T00:41:13;23.27;;;12.55;;
31424;SDS011;18054;51.572;7.372;2023-04-06T00:43:41;21.27;;;11.90;;
31424;SDS011;18054;51.572;7.372;2023-04-06T00:46:08;23.17;;;11.77;;
31424;SDS011;18054;51.572;7.372;2023-04-06T00:48:35;23.92;;;12.32;;
31424;SDS011;18054;51.572;7.372;2023-04-06T00:51:05;21.00;;;11.93;;
31424;SDS011;18054;51.572;7.372;2023-04-06T00:53:32;27.67;;;12.43;;
31424;SDS011;18054;51.572;7.372;2023-04-06T00:56:01;25.95;;;11.88;;
31424;SDS011;18054;51.572;7.372;2023-04-06T00:58:36;23.65;;;11.70;;
31424;SDS011;18054;51.572;7.372;2023-04-06T01:01:06;25.45;;;13.25;;
31424;SDS011;18054;51.572;7.372;2023-04-06T01:03:34;24.38;;;12.23;;
31424;SDS011;18054;51.572;7.372;2023-04-06T01:06:02;21.90;;;11.95;;
31424;SDS011;18054;51.572;7.372;2023-04-06T01:08:36;23.50;;;11.93;;
31424;SDS011;18054;51.572;7.372;2023-04-06T01:11:17;20.27;;;11.73;;
31424;SDS011;18054;51.572;7.372;2023-04-06T01:13:47;25.83;;;12.57;;
31424;SDS011;18054;51.572;7.372;2023-04-06T01:16:35;26.95;;;13.18;;
31424;SDS011;18054;51.572;7.372;2023-04-06T01:19:12;24.88;;;12.80;;
31424;SDS011;18054;51.572;7.372;2023-04-06T01:21:49;31.35;;;13.52;;
31424;SDS011;18054;51.572;7.372;2023-04-06T01:24:40;26.10;;;13.30;;
31424;SDS011;18054;51.572;7.372;2023-04-06T01:27:14;26.40;;;12.90;;
31424;SDS011;18054;51.572;7.372;2023-04-06T01:29:56;25.80;;;12.63;;
31424;SDS011;18054;51.572;7.372;2023-04-06T01:32:55;29.13;;;12.70;;
31424;SDS011;18054;51.572;7.372;2023-04-06T01:35:41;24.45;;;11.85;;
31424;SDS011;18054;51.572;7.372;2023-04-06T01:38:12;31.40;;;13.30;;
31424;SDS011;18054;51.572;7.372;2023-04-06T01:43:09;22.83;;;12.25;;
31424;SDS011;18054;51.572;7.372;2023-04-06T01:48:28;27.42;;;12.07;;
31424;SDS011;18054;51.572;7.372;2023-04-06T01:50:57;23.65;;;11.73;;
31424;SDS011;18054;51.572;7.372;2023-04-06T01:53:29;22.17;;;12.43;;
31424;SDS011;18054;51.572;7.372;2023-04-06T01:56:02;26.58;;;12.35;;
31424;SDS011;18054;51.572;7.372;2023-04-06T01:58:38;24.88;;;13.35;;
31424;SDS011;18054;51.572;7.372;2023-04-06T02:01:06;25.33;;;12.98;;
31424;SDS011;18054;51.572;7.372;2023-04-06T02:03:46;27.05;;;14.02;;
31424;SDS011;18054;51.572;7.372;2023-04-06T02:06:14;28.38;;;12.68;;
31424;SDS011;18054;51.572;7.372;2023-04-06T02:08:41;25.88;;;13.82;;
31424;SDS011;18054;51.572;7.372;2023-04-06T02:11:09;30.45;;;13.18;;
31424;SDS011;18054;51.572;7.372;2023-04-06T02:13:43;26.58;;;14.43;;
31424;SDS011;18054;51.572;7.372;2023-04-06T02:16:10;26.70;;;13.48;;
31424;SDS011;18054;51.572;7.372;2023-04-06T02:18:38;25.10;;;13.27;;
31424;SDS011;18054;51.572;7.372;2023-04-06T02:21:05;23.23;;;13.40;;
31424;SDS011;18054;51.572;7.372;2023-04-06T02:23:33;22.73;;;13.13;;
31424;SDS011;18054;51.572;7.372;2023-04-06T02:26:00;31.80;;;13.50;;
31424;SDS011;18054;51.572;7.372;2023-04-06T02:28:27;25.40;;;12.63;;
31424;SDS011;18054;51.572;7.372;2023-04-06T02:30:56;40.05;;;14.20;;
31424;SDS011;18054;51.572;7.372;2023-04-06T02:33:26;41.28;;;15.68;;
31424;SDS011;18054;51.572;7.372;2023-04-06T02:35:53;30.20;;;13.00;;
31424;SDS011;18054;51.572;7.372;2023-04-06T02:38:21;38.17;;;13.25;;
31424;SDS011;18054;51.572;7.372;2023-04-06T02:40:51;33.25;;;13.45;;
31424;SDS011;18054;51.572;7.372;2023-04-06T02:43:21;27.15;;;12.85;;
31424;SDS011;18054;51.572;7.372;2023-04-06T02:45:54;27.73;;;13.27;;
31424;SDS011;18054;51.572;7.372;2023-04-06T02:48:24;32.97;;;14.05;;
31424;SDS011;18054;51.572;7.372;2023-04-06T02:50:52;34.15;;;13.68;;
31424;SDS011;18054;51.572;7.372;2023-04-06T02:53:19;24.25;;;13.55;;
31424;SDS011;18054;51.572;7.372;2023-04-06T02:55:47;31.80;;;13.27;;
31424;SDS011;18054;51.572;7.372;2023-04-06T02:58:14;23.00;;;13.82;;
31424;SDS011;18054;51.572;7.372;2023-04-06T03:00:50;31.75;;;13.57;;
31424;SDS011;18054;51.572;7.372;2023-04-06T03:03:17;33.30;;;13.57;;
31424;SDS011;18054;51.572;7.372;2023-04-06T03:05:47;27.25;;;13.15;;
31424;SDS011;18054;51.572;7.372;2023-04-06T03:08:18;21.45;;;12.63;;
31424;SDS011;18054;51.572;7.372;2023-04-06T03:10:45;32.72;;;14.30;;
31424;SDS011;18054;51.572;7.372;2023-04-06T03:13:15;26.38;;;13.05;;
31424;SDS011;18054;51.572;7.372;2023-04-06T03:15:51;26.52;;;13.50;;
31424;SDS011;18054;51.572;7.372;2023-04-06T03:18:21;30.23;;;13.98;;
31424;SDS011;18054;51.572;7.372;2023-04-06T03:20:51;28.15;;;13.30;;
31424;SDS011;18054;51.572;7.372;2023-04-06T03:23:21;21.25;;;12.48;;
31424;SDS011;18054;51.572;7.372;2023-04-06T03:25:54;28.58;;;13.52;;
31424;SDS011;18054;51.572;7.372;2023-04-06T03:28:21;33.22;;;14.77;;
31424;SDS011;18054;51.572;7.372;2023-04-06T03:30:55;29.25;;;15.10;;
31424;SDS011;18054;51.572;7.372;2023-04-06T03:33:38;31.95;;;14.70;;
31424;SDS011;18054;51.572;7.372;2023-04-06T03:36:10;28.80;;;14.15;;
31424;SDS011;18054;51.572;7.372;2023-04-06T03:38:40;26.83;;;13.25;;
31424;SDS011;18054;51.572;7.372;2023-04-06T03:41:11;36.53;;;14.98;;
31424;SDS011;18054;51.572;7.372;2023-04-06T03:43:42;37.33;;;16.45;;
31424;SDS011;18054;51.572;7.372;2023-04-06T03:46:09;44.65;;;15.98;;
31424;SDS011;18054;51.572;7.372;2023-04-06T03:48:37;36.17;;;15.25;;
31424;SDS011;18054;51.572;7.372;2023-04-06T03:51:05;34.78;;;14.57;;
31424;SDS011;18054;51.572;7.372;2023-04-06T03:53:34;32.38;;;15.25;;
31424;SDS011;18054;51.572;7.372;2023-04-06T03:56:03;35.15;;;15.15;;
31424;SDS011;18054;51.572;7.372;2023-04-06T03:58:30;29.95;;;13.95;;
31424;SDS011;18054;51.572;7.372;2023-04-06T04:00:58;30.55;;;14.80;;
31424;SDS011;18054;51.572;7.372;2023-04-06T04:03:26;32.78;;;15.63;;
31424;SDS011;18054;51.572;7.372;2023-04-06T04:05:54;32.47;;;15.18;;
31424;SDS011;18054;51.572;7.372;2023-04-06T04:08:24;34.08;;;14.15;;
31424;SDS011;18054;51.572;7.372;2023-04-06T04:13:20;37.08;;;15.38;;
31424;SDS011;18054;51.572;7.372;2023-04-06T04:15:50;38.90;;;14.48;;
31424;SDS011;18054;51.572;7.372;2023-04-06T04:18:17;38.00;;;15.05;;
31424;SDS011;18054;51.572;7.372;2023-04-06T04:20:44;35.95;;;14.80;;
31424;SDS011;18054;51.572;7.372;2023-04-06T04:23:12;33.10;;;14.88;;
31424;SDS011;18054;51.572;7.372;2023-04-06T04:25:40;29.73;;;15.05;;
31424;SDS011;18054;51.572;7.372;2023-04-06T04:28:07;40.97;;;15.13;;
31424;SDS011;18054;51.572;7.372;2023-04-06T04:30:37;33.33;;;13.95;;
31424;SDS011;18054;51.572;7.372;2023-04-06T04:33:08;34.65;;;15.80;;
31424;SDS011;18054;51.572;7.372;2023-04-06T04:38:04;39.72;;;14.35;;
31424;SDS011;18054;51.572;7.372;2023-04-06T04:40:35;25.40;;;13.73;;
31424;SDS011;18054;51.572;7.372;2023-04-06T04:43:06;29.20;;;15.02;;
31424;SDS011;18054;51.572;7.372;2023-04-06T04:45:34;32.08;;;14.82;;
31424;SDS011;18054;51.572;7.372;2023-04-06T04:48:15;31.60;;;16.13;;
31424;SDS011;18054;51.572;7.372;2023-04-06T04:50:49;40.45;;;15.68;;
31424;SDS011;18054;51.572;7.372;2023-04-06T04:53:21;32.03;;;15.02;;
31424;SDS011;18054;51.572;7.372;2023-04-06T04:55:53;35.22;;;15.23;;
31424;SDS011;18054;51.572;7.372;2023-04-06T04:58:22;42.88;;;14.90;;
31424;SDS011;18054;51.572;7.372;2023-04-06T05:00:54;34.15;;;14.25;;
31424;SDS011;18054;51.572;7.372;2023-04-06T05:05:58;38.40;;;14.65;;
31424;SDS011;18054;51.572;7.372;2023-04-06T05:08:30;27.45;;;15.07;;
31424;SDS011;18054;51.572;7.372;2023-04-06T05:10:58;33.70;;;15.80;;
31424;SDS011;18054;51.572;7.372;2023-04-06T05:13:29;27.88;;;15.32;;
31424;SDS011;18054;51.572;7.372;2023-04-06T05:15:58;36.28;;;15.05;;
31424;SDS011;18054;51.572;7.372;2023-04-06T05:18:29;44.10;;;16.48;;
31424;SDS011;18054;51.572;7.372;2023-04-06T05:20:59;35.20;;;16.17;;
31424;SDS011;18054;51.572;7.372;2023-04-06T05:23:38;36.90;;;16.95;;
31424;SDS011;18054;51.572;7.372;2023-04-06T05:26:05;30.50;;;15.50;;
31424;SDS011;18054;51.572;7.372;2023-04-06T05:28:33;28.88;;;15.55;;
31424;SDS011;18054;51.572;7.372;2023-04-06T05:31:01;36.25;;;15.05;;
31424;SDS011;18054;51.572;7.372;2023-04-06T05:33:36;37.80;;;16.17;;
31424;SDS011;18054;51.572;7.372;2023-04-06T05:36:11;35.42;;;15.82;;
31424;SDS011;18054;51.572;7.372;2023-04-06T05:38:43;29.08;;;14.75;;
31424;SDS011;18054;51.572;7.372;2023-04-06T05:41:29;33.63;;;15.98;;
31424;SDS011;18054;51.572;7.372;2023-04-06T05:43:57;37.60;;;16.23;;
31424;SDS011;18054;51.572;7.372;2023-04-06T05:48:54;30.63;;;14.80;;
31424;SDS011;18054;51.572;7.372;2023-04-06T05:51:26;25.85;;;14.48;;
31424;SDS011;18054;51.572;7.372;2023-04-06T05:53:54;33.15;;;15.40;;
31424;SDS011;18054;51.572;7.372;2023-04-06T05:56:21;33.58;;;16.83;;
31424;SDS011;18054;51.572;7.372;2023-04-06T05:58:49;55.50;;;17.27;;
31424;SDS011;18054;51.572;7.372;2023-04-06T06:01:23;44.78;;;16.45;;
31424;SDS011;18054;51.572;7.372;2023-04-06T06:03:50;40.75;;;16.98;;
31424;SDS011;18054;51.572;7.372;2023-04-06T06:06:18;30.38;;;14.63;;
31424;SDS011;18054;51.572;7.372;2023-04-06T06:09:02;29.63;;;14.65;;
31424;SDS011;18054;51.572;7.372;2023-04-06T06:11:34;45.58;;;15.70;;
31424;SDS011;18054;51.572;7.372;2023-04-06T06:14:03;49.35;;;16.45;;
31424;SDS011;18054;51.572;7.372;2023-04-06T06:16:34;40.80;;;16.00;;
31424;SDS011;18054;51.572;7.372;2023-04-06T06:19:02;38.95;;;15.75;;
31424;SDS011;18054;51.572;7.372;2023-04-06T06:21:30;39.35;;;17.35;;
31424;SDS011;18054;51.572;7.372;2023-04-06T06:23:58;39.40;;;16.52;;
31424;SDS011;18054;51.572;7.372;2023-04-06T06:26:27;39.05;;;16.05;;
31424;SDS011;18054;51.572;7.372;2023-04-06T06:28:54;43.92;;;15.48;;
31424;SDS011;18054;51.572;7.372;2023-04-06T06:33:50;29.33;;;15.07;;
31424;SDS011;18054;51.572;7.372;2023-04-06T06:36:19;28.88;;;14.15;;
31424;SDS011;18054;51.572;7.372;2023-04-06T06:38:47;32.17;;;15.95;;
31424;SDS011;18054;51.572;7.372;2023-04-06T06:41:17;24.00;;;14.75;;
31424;SDS011;18054;51.572;7.372;2023-04-06T06:43:46;29.13;;;14.70;;
31424;SDS011;18054;51.572;7.372;2023-04-06T06:46:14;36.97;;;15.80;;
31424;SDS011;18054;51.572;7.372;2023-04-06T06:48:41;34.28;;;13.93;;
31424;SDS011;18054;51.572;7.372;2023-04-06T06:51:09;31.38;;;14.35;;
31424;SDS011;18054;51.572;7.372;2023-04-06T06:53:39;24.38;;;13.57;;
31424;SDS011;18054;51.572;7.372;2023-04-06T06:56:06;22.40;;;11.32;;
31424;SDS011;18054;51.572;7.372;2023-04-06T06:58:34;26.02;;;10.43;;
31424;SDS011;18054;51.572;7.372;2023-04-06T07:01:03;39.10;;;10.57;;
31424;SDS011;18054;51.572;7.372;2023-04-06T07:03:32;19.92;;;9.45;;
31424;SDS011;18054;51.572;7.372;2023-04-06T07:06:00;31.70;;;9.73;;
31424;SDS011;18054;51.572;7.372;2023-04-06T07:08:28;20.65;;;9.85;;
31424;SDS011;18054;51.572;7.372;2023-04-06T07:10:55;31.98;;;9.05;;
31424;SDS011;18054;51.572;7.372;2023-04-06T07:13:23;14.98;;;9.35;;
31424;SDS011;18054;51.572;7.372;2023-04-06T07:15:54;16.20;;;9.18;;
31424;SDS011;18054;51.572;7.372;2023-04-06T07:18:23;16.73;;;9.02;;
31424;SDS011;18054;51.572;7.372;2023-04-06T07:20:50;31.40;;;10.10;;
31424;SDS011;18054;51.572;7.372;2023-04-06T07:23:18;24.40;;;10.27;;
31424;SDS011;18054;51.572;7.372;2023-04-06T07:25:46;21.40;;;9.93;;
31424;SDS011;18054;51.572;7.372;2023-04-06T07:28:13;27.02;;;8.88;;
31424;SDS011;18054;51.572;7.372;2023-04-06T07:30:41;19.13;;;8.85;;
31424;SDS011;18054;51.572;7.372;2023-04-06T07:33:10;17.27;;;8.68;;
31424;SDS011;18054;51.572;7.372;2023-04-06T07:35:39;19.05;;;8.68;;
31424;SDS011;18054;51.572;7.372;2023-04-06T07:38:07;22.20;;;8.93;;
31424;SDS011;18054;51.572;7.372;2023-04-06T07:40:35;19.20;;;8.55;;
31424;SDS011;18054;51.572;7.372;2023-04-06T07:43:02;21.10;;;8.68;;
31424;SDS011;18054;51.572;7.372;2023-04-06T07:45:30;19.23;;;8.73;;
31424;SDS011;18054;51.572;7.372;2023-04-06T07:47:59;18.67;;;8.48;;
31424;SDS011;18054;51.572;7.372;2023-04-06T07:52:56;15.88;;;7.80;;
31424;SDS011;18054;51.572;7.372;2023-04-06T07:55:26;19.65;;;8.32;;
31424;SDS011;18054;51.572;7.372;2023-04-06T07:57:53;18.35;;;8.05;;
31424;SDS011;18054;51.572;7.372;2023-04-06T08:00:21;16.67;;;9.15;;
31424;SDS011;18054;51.572;7.372;2023-04-06T08:02:48;18.60;;;8.25;;
31424;SDS011;18054;51.572;7.372;2023-04-06T08:07:45;17.45;;;8.85;;
31424;SDS011;18054;51.572;7.372;2023-04-06T08:10:13;15.00;;;7.38;;
31424;SDS011;18054;51.572;7.372;2023-04-06T08:12:41;12.73;;;7.65;;
31424;SDS011;18054;51.572;7.372;2023-04-06T08:15:08;20.85;;;9.30;;
31424;SDS011;18054;51.572;7.372;2023-04-06T08:17:36;25.00;;;9.88;;
31424;SDS011;18054;51.572;7.372;2023-04-06T08:20:04;19.33;;;10.45;;
31424;SDS011;18054;51.572;7.372;2023-04-06T08:22:31;22.67;;;8.65;;
31424;SDS011;18054;51.572;7.372;2023-04-06T08:24:59;17.90;;;9.50;;
31424;SDS011;18054;51.572;7.372;2023-04-06T08:27:27;16.27;;;8.35;;
31424;SDS011;18054;51.572;7.372;2023-04-06T08:29:55;33.30;;;7.97;;
31424;SDS011;18054;51.572;7.372;2023-04-06T08:32:22;15.77;;;8.02;;
31424;SDS011;18054;51.572;7.372;2023-04-06T08:34:52;16.00;;;8.88;;
31424;SDS011;18054;51.572;7.372;2023-04-06T08:37:21;16.30;;;8.38;;
31424;SDS011;18054;51.572;7.372;2023-04-06T08:39:48;17.42;;;8.70;;
31424;SDS011;18054;51.572;7.372;2023-04-06T08:42:19;24.40;;;9.93;;
31424;SDS011;18054;51.572;7.372;2023-04-06T08:44:49;19.10;;;8.98;;
31424;SDS011;18054;51.572;7.372;2023-04-06T08:47:18;23.15;;;11.23;;
31424;SDS011;18054;51.572;7.372;2023-04-06T08:49:50;17.38;;;9.48;;
31424;SDS011;18054;51.572;7.372;2023-04-06T08:52:18;18.75;;;10.25;;
31424;SDS011;18054;51.572;7.372;2023-04-06T08:54:45;18.52;;;9.93;;
31424;SDS011;18054;51.572;7.372;2023-04-06T08:57:13;15.13;;;9.40;;
31424;SDS011;18054;51.572;7.372;2023-04-06T08:59:40;18.48;;;9.73;;
31424;SDS011;18054;51.572;7.372;2023-04-06T09:02:10;32.92;;;11.80;;
31424;SDS011;18054;51.572;7.372;2023-04-06T09:04:40;22.83;;;11.55;;
31424;SDS011;18054;51.572;7.372;2023-04-06T09:07:07;20.35;;;12.00;;
31424;SDS011;18054;51.572;7.372;2023-04-06T09:09:35;20.52;;;11.68;;
31424;SDS011;18054;51.572;7.372;2023-04-06T09:14:35;18.67;;;10.80;;
31424;SDS011;18054;51.572;7.372;2023-04-06T09:17:03;21.17;;;12.18;;
31424;SDS011;18054;51.572;7.372;2023-04-06T09:19:32;30.58;;;11.73;;
31424;SDS011;18054;51.572;7.372;2023-04-06T09:22:03;36.22;;;12.40;;
31424;SDS011;18054;51.572;7.372;2023-04-06T09:24:39;21.00;;;12.25;;
31424;SDS011;18054;51.572;7.372;2023-04-06T09:27:06;30.00;;;12.43;;
31424;SDS011;18054;51.572;7.372;2023-04-06T09:29:34;24.60;;;12.52;;
31424;SDS011;18054;51.572;7.372;2023-04-06T09:32:03;22.33;;;12.18;;
31424;SDS011;18054;51.572;7.372;2023-04-06T09:34:32;30.10;;;12.73;;
31424;SDS011;18054;51.572;7.372;2023-04-06T09:37:00;25.67;;;12.50;;
31424;SDS011;18054;51.572;7.372;2023-04-06T09:39:28;21.88;;;12.60;;
31424;SDS011;18054;51.572;7.372;2023-04-06T09:41:55;21.05;;;12.88;;
31424;SDS011;18054;51.572;7.372;2023-04-06T09:44:23;18.83;;;12.60;;
31424;SDS011;18054;51.572;7.372;2023-04-06T09:49:26;23.42;;;13.23;;
31424;SDS011;18054;51.572;7.372;2023-04-06T09:51:56;22.05;;;12.02;;
31424;SDS011;18054;51.572;7.372;2023-04-06T09:54:26;20.55;;;11.88;;
31424;SDS011;18054;51.572;7.372;2023-04-06T09:56:56;27.90;;;11.30;;
31424;SDS011;18054;51.572;7.372;2023-04-06T09:59:25;25.40;;;11.68;;
31424;SDS011;18054;51.572;7.372;2023-04-06T10:01:56;26.42;;;10.98;;
31424;SDS011;18054;51.572;7.372;2023-04-06T10:04:27;19.65;;;11.80;;
31424;SDS011;18054;51.572;7.372;2023-04-06T10:07:00;20.05;;;12.23;;
31424;SDS011;18054;51.572;7.372;2023-04-06T10:09:29;21.50;;;12.05;;
31424;SDS011;18054;51.572;7.372;2023-04-06T10:12:02;24.50;;;14.07;;
31424;SDS011;18054;51.572;7.372;2023-04-06T10:14:31;21.50;;;12.82;;
31424;SDS011;18054;51.572;7.372;2023-04-06T10:16:58;26.88;;;14.65;;
31424;SDS011;18054;51.572;7.372;2023-04-06T10:19:28;28.35;;;14.02;;
31424;SDS011;18054;51.572;7.372;2023-04-06T10:21:57;31.85;;;16.27;;
31424;SDS011;18054;51.572;7.372;2023-04-06T10:24:27;29.05;;;16.15;;
31424;SDS011;18054;51.572;7.372;2023-04-06T10:26:58;28.50;;;16.60;;
31424;SDS011;18054;51.572;7.372;2023-04-06T10:29:26;25.48;;;14.98;;
31424;SDS011;18054;51.572;7.372;2023-04-06T10:31:53;25.02;;;14.95;;
31424;SDS011;18054;51.572;7.372;2023-04-06T10:34:22;28.52;;;14.65;;
31424;SDS011;18054;51.572;7.372;2023-04-06T10:36:49;24.52;;;14.10;;
31424;SDS011;18054;51.572;7.372;2023-04-06T10:39:23;27.48;;;15.35;;
31424;SDS011;18054;51.572;7.372;2023-04-06T10:41:53;29.88;;;16.17;;
31424;SDS011;18054;51.572;7.372;2023-04-06T10:44:21;32.75;;;15.02;;
31424;SDS011;18054;51.572;7.372;2023-04-06T10:46:55;26.80;;;15.40;;
31424;SDS011;18054;51.572;7.372;2023-04-06T10:49:22;24.88;;;15.18;;
31424;SDS011;18054;51.572;7.372;2023-04-06T10:51:53;28.02;;;15.95;;
31424;SDS011;18054;51.572;7.372;2023-04-06T10:54:21;27.60;;;15.10;;
31424;SDS011;18054;51.572;7.372;2023-04-06T10:56:49;26.30;;;15.13;;
31424;SDS011;18054;51.572;7.372;2023-04-06T10:59:19;24.90;;;14.32;;
31424;SDS011;18054;51.572;7.372;2023-04-06T11:01:48;22.75;;;14.02;;
31424;SDS011;18054;51.572;7.372;2023-04-06T11:04:16;24.10;;;14.50;;
31424;SDS011;18054;51.572;7.372;2023-04-06T11:06:46;26.15;;;13.98;;
31424;SDS011;18054;51.572;7.372;2023-04-06T11:09:22;36.15;;;15.05;;
31424;SDS011;18054;51.572;7.372;2023-04-06T11:11:50;26.63;;;14.73;;
31424;SDS011;18054;51.572;7.372;2023-04-06T11:14:17;26.50;;;14.60;;
31424;SDS011;18054;51.572;7.372;2023-04-06T11:16:47;26.30;;;15.55;;
31424;SDS011;18054;51.572;7.372;2023-04-06T11:19:16;24.08;;;14.85;;
31424;SDS011;18054;51.572;7.372;2023-04-06T11:21:44;26.75;;;15.02;;
31424;SDS011;18054;51.572;7.372;2023-04-06T11:24:14;26.02;;;15.73;;
31424;SDS011;18054;51.572;7.372;2023-04-06T11:26:43;27.73;;;16.13;;
31424;SDS011;18054;51.572;7.372;2023-04-06T11:29:11;29.75;;;11.68;;
31424;SDS011;18054;51.572;7.372;2023-04-06T11:31:39;19.42;;;12.23;;
31424;SDS011;18054;51.572;7.372;2023-04-06T11:34:12;25.85;;;14.15;;
31424;SDS011;18054;51.572;7.372;2023-04-06T11:36:40;28.73;;;13.73;;
31424;SDS011;18054;51.572;7.372;2023-04-06T11:39:08;19.17;;;12.50;;
31424;SDS011;18054;51.572;7.372;2023-04-06T11:44:03;24.35;;;14.90;;
31424;SDS011;18054;51.572;7.372;2023-04-06T11:46:30;25.52;;;14.18;;
31424;SDS011;18054;51.572;7.372;2023-04-06T11:48:58;22.60;;;14.93;;
31424;SDS011;18054;51.572;7.372;2023-04-06T11:51:27;24.20;;;13.57;;
31424;SDS011;18054;51.572;7.372;2023-04-06T11:53:55;25.63;;;15.52;;
31424;SDS011;18054;51.572;7.372;2023-04-06T11:58:50;25.50;;;16.00;;
31424;SDS011;18054;51.572;7.372;2023-04-06T12:01:17;24.73;;;14.90;;
31424;SDS011;18054;51.572;7.372;2023-04-06T12:03:45;32.47;;;18.55;;
31424;SDS011;18054;51.572;7.372;2023-04-06T12:11:09;32.17;;;18.92;;
31424;SDS011;18054;51.572;7.372;2023-04-06T12:13:36;27.60;;;18.48;;
31424;SDS011;18054;51.572;7.372;2023-04-06T12:16:04;35.13;;;19.85;;
31424;SDS011;18054;51.572;7.372;2023-04-06T12:18:32;27.55;;;17.67;;
31424;SDS011;18054;51.572;7.372;2023-04-06T12:20:59;26.38;;;16.55;;
31424;SDS011;18054;51.572;7.372;2023-04-06T12:23:27;40.25;;;19.02;;
31424;SDS011;18054;51.572;7.372;2023-04-06T12:25:54;34.38;;;18.30;;
31424;SDS011;18054;51.572;7.372;2023-04-06T12:28:23;29.90;;;18.40;;
31424;SDS011;18054;51.572;7.372;2023-04-06T12:30:53;25.25;;;17.00;;
31424;SDS011;18054;51.572;7.372;2023-04-06T12:33:21;30.60;;;19.85;;
31424;SDS011;18054;51.572;7.372;2023-04-06T12:35:48;33.40;;;21.55;;
31424;SDS011;18054;51.572;7.372;2023-04-06T12:38:16;35.67;;;20.42;;
31424;SDS011;18054;51.572;7.372;2023-04-06T12:40:43;37.20;;;21.45;;
31424;SDS011;18054;51.572;7.372;2023-04-06T12:43:11;24.15;;;14.23;;
31424;SDS011;18054;51.572;7.372;2023-04-06T12:48:07;21.42;;;13.48;;
31424;SDS011;18054;51.572;7.372;2023-04-06T12:50:35;23.23;;;14.25;;
31424;SDS011;18054;51.572;7.372;2023-04-06T12:53:03;21.77;;;13.48;;
31424;SDS011;18054;51.572;7.372;2023-04-06T12:55:30;22.50;;;13.32;;
31424;SDS011;18054;51.572;7.372;2023-04-06T12:58:00;22.65;;;13.23;;
31424;SDS011;18054;51.572;7.372;2023-04-06T13:00:28;24.98;;;14.68;;
31424;SDS011;18054;51.572;7.372;2023-04-06T13:02:56;27.05;;;13.65;;
31424;SDS011;18054;51.572;7.372;2023-04-06T13:05:25;25.15;;;15.40;;
31424;SDS011;18054;51.572;7.372;2023-04-06T13:07:55;20.58;;;14.02;;
31424;SDS011;18054;51.572;7.372;2023-04-06T13:10:23;21.08;;;13.05;;
31424;SDS011;18054;51.572;7.372;2023-04-06T13:12:50;26.15;;;15.27;;
31424;SDS011;18054;51.572;7.372;2023-04-06T13:15:18;30.20;;;16.10;;
31424;SDS011;18054;51.572;7.372;2023-04-06T13:17:45;20.17;;;13.30;;
31424;SDS011;18054;51.572;7.372;2023-04-06T13:20:13;24.42;;;14.40;;
31424;SDS011;18054;51.572;7.372;2023-04-06T13:22:42;22.17;;;15.02;;
31424;SDS011;18054;51.572;7.372;2023-04-06T13:25:09;24.30;;;13.65;;
31424;SDS011;18054;51.572;7.372;2023-04-06T13:27:36;22.88;;;15.38;;
31424;SDS011;18054;51.572;7.372;2023-04-06T13:30:04;26.65;;;13.93;;
31424;SDS011;18054;51.572;7.372;2023-04-06T13:32:32;25.60;;;14.23;;
31424;SDS011;18054;51.572;7.372;2023-04-06T13:34:59;20.90;;;13.65;;
31424;SDS011;18054;51.572;7.372;2023-04-06T13:37:28;18.75;;;12.73;;
31424;SDS011;18054;51.572;7.372;2023-04-06T13:39:57;28.90;;;13.95;;
31424;SDS011;18054;51.572;7.372;2023-04-06T13:42:25;25.98;;;13.95;;
31424;SDS011;18054;51.572;7.372;2023-04-06T13:44:53;31.63;;;15.20;;
31424;SDS011;18054;51.572;7.372;2023-04-06T13:47:20;31.65;;;15.68;;
31424;SDS011;18054;51.572;7.372;2023-04-06T13:49:49;31.23;;;17.00;;
31424;SDS011;18054;51.572;7.372;2023-04-06T13:52:17;25.77;;;14.15;;
31424;SDS011;18054;51.572;7.372;2023-04-06T13:54:44;17.83;;;12.05;;
31424;SDS011;18054;51.572;7.372;2023-04-06T13:57:13;34.50;;;15.77;;
31424;SDS011;18054;51.572;7.372;2023-04-06T13:59:40;27.92;;;12.95;;
31424;SDS011;18054;51.572;7.372;2023-04-06T14:02:13;27.52;;;11.73;;
31424;SDS011;18054;51.572;7.372;2023-04-06T14:04:41;24.05;;;12.88;;
31424;SDS011;18054;51.572;7.372;2023-04-06T14:07:08;19.23;;;10.60;;
31424;SDS011;18054;51.572;7.372;2023-04-06T14:09:36;19.70;;;10.70;;
31424;SDS011;18054;51.572;7.372;2023-04-06T14:12:03;16.85;;;11.05;;
31424;SDS011;18054;51.572;7.372;2023-04-06T14:14:32;22.45;;;11.60;;
31424;SDS011;18054;51.572;7.372;2023-04-06T14:16:59;21.70;;;12.13;;
31424;SDS011;18054;51.572;7.372;2023-04-06T14:19:27;18.90;;;12.02;;
31424;SDS011;18054;51.572;7.372;2023-04-06T14:21:54;19.45;;;11.07;;
31424;SDS011;18054;51.572;7.372;2023-04-06T14:24:22;20.52;;;10.43;;
31424;SDS011;18054;51.572;7.372;2023-04-06T14:26:49;25.38;;;12.25;;
31424;SDS011;18054;51.572;7.372;2023-04-06T14:29:17;20.30;;;12.13;;
31424;SDS011;18054;51.572;7.372;2023-04-06T14:31:46;26.92;;;13.60;;
31424;SDS011;18054;51.572;7.372;2023-04-06T14:34:14;18.63;;;12.18;;
31424;SDS011;18054;51.572;7.372;2023-04-06T14:36:42;17.48;;;10.77;;
31424;SDS011;18054;51.572;7.372;2023-04-06T14:39:10;22.17;;;12.45;;
31424;SDS011;18054;51.572;7.372;2023-04-06T14:41:37;22.90;;;13.35;;
31424;SDS011;18054;51.572;7.372;2023-04-06T14:44:05;22.45;;;14.23;;
31424;SDS011;18054;51.572;7.372;2023-04-06T14:46:32;21.55;;;13.23;;
31424;SDS011;18054;51.572;7.372;2023-04-06T14:49:01;24.67;;;13.48;;
31424;SDS011;18054;51.572;7.372;2023-04-06T14:51:29;18.10;;;12.05;;
31424;SDS011;18054;51.572;7.372;2023-04-06T14:53:57;21.92;;;12.90;;
31424;SDS011;18054;51.572;7.372;2023-04-06T14:56:24;20.25;;;12.60;;
31424;SDS011;18054;51.572;7.372;2023-04-06T14:58:51;21.58;;;12.43;;
31424;SDS011;18054;51.572;7.372;2023-04-06T15:01:19;18.80;;;10.68;;
31424;SDS011;18054;51.572;7.372;2023-04-06T15:03:47;29.08;;;12.02;;
31424;SDS011;18054;51.572;7.372;2023-04-06T15:06:17;22.02;;;11.80;;
31424;SDS011;18054;51.572;7.372;2023-04-06T15:08:47;22.75;;;13.00;;
31424;SDS011;18054;51.572;7.372;2023-04-06T15:13:41;22.42;;;13.50;;
31424;SDS011;18054;51.572;7.372;2023-04-06T15:16:09;21.77;;;12.57;;
31424;SDS011;18054;51.572;7.372;2023-04-06T15:18:37;24.50;;;12.63;;